LFMTLFLW

Guest
Details From LFMT - Montpellier/Mediterranee
To LFLW - Aurillac
Flight Number -
Tags generated
Created
Modified
Stats Distance 103 nm / 191 km
Max Altitude 6,800 ft / 2,073 m
Waypoints 3
Social Downloads 1
Likes 0
Share VATSIM

Download

Looking for another format? Having issues loading an existing format? Contact us
Advertisement - Login to hide

Notes

Basic altitude profile: - Ascent Rate: 2500ft/min - Ascent Speed: 250kts - Cruise Altitude: 35000ft - Cruise Speed: 420kts - Descent Rate: 1500ft/min - Descent Speed: 250kts Options: - Use NATs: yes - Use PACOTS: yes - Use low airways: yes - Use high airways: yes

Route

LFMT GONIM LFLW

ID Type Via Altitude Latitude Longitude Leg Dist Tot Dist Heading (true) Name
O LFMT APT - 0 ft / 0 m 43.57626˚ 3.96326˚ - 0 nm - Montpellier/Mediterranee
GONIM FIX - 6,800 ft / 2,073 m 44.45444˚ 2.84222˚ 71 nm 71 nm 318° / 317° -
O LFLW APT - 0 ft / 0 m 44.89142˚ 2.42219˚ 31 nm 103 nm 326° / 325° Aurillac

Altitude Profile

Advertisement - Login to hide

LFMT

Details ICAO LFMT (MPL)
Name Montpellier/Mediterranee
Region France
Timezone Europe/Paris (UTC+2.0)
Stats Elevation 16 ft / 5 m (AMSL)
Location 43.576262° 3.963261°
Runways 2
Magnetic Variation 1.297° E

METAR

LFMT 210300Z AUTO 02005KT CAVOK 14/13 Q1013 NOSIG

Decode

TAF

TAF LFMT 210200Z 2103/2203 03005KT CAVOK BECMG 2110/2112 14010KT TEMPO 2112/2119 FEW030CB BECMG 2119/2121 VRB03KT PROB40 TEMPO 2200/2203 BKN010 SCT020TCU

Decode

Departure Runways

ID Width Length Bearing (true) Bearing (mag) Surface Threshold Offset Overrun Length
13L 164 ft / 50 m 8,525 ft / 2,598 m 124.78° 123.48° Asphalt 0 ft / 0 m 0 ft / 0 m
13R 98 ft / 30 m 3,611 ft / 1,101 m 124.80° 123.50° Asphalt 328 ft / 100 m 0 ft / 0 m
31L 98 ft / 30 m 3,611 ft / 1,101 m 304.81° 303.51° Asphalt 0 ft / 0 m 0 ft / 0 m
31R 164 ft / 50 m 8,525 ft / 2,598 m 304.80° 303.50° Asphalt 0 ft / 0 m 0 ft / 0 m

LFLW

Details ICAO LFLW (AUR)
Name Aurillac
Region France
Timezone Europe/Paris (UTC+2.0)
Stats Elevation 2,096 ft / 639 m (AMSL)
Location 44.891416° 2.422195°
Runways 1
Magnetic Variation 0.864° E

METAR

LFLW 210300Z AUTO 10006KT CAVOK 11/10 Q1014

Decode

TAF

Not found

Destination Runways

ID Width Length Bearing (true) Bearing (mag) Surface Threshold Offset Overrun Length
15 98 ft / 30 m 5,430 ft / 1,655 m 150.01° 149.15° Asphalt 0 ft / 0 m 0 ft / 0 m
33 98 ft / 30 m 5,430 ft / 1,655 m 330.01° 329.15° Asphalt 0 ft / 0 m 0 ft / 0 m

Approach Navaids

Runway Type Ident Frequency Range Bearing (true) Bearing (mag) Slope Elevation
15 Localiser AR 110.30 MHz 18 nm / 33 km 150.87° 150.01° - 2,057 ft / 627 m (AMSL)
15 Glidescope AR 110.30 MHz 10 nm / 19 km 150.01° 149.15° 3.00° 2,106 ft / 642 m (AMSL)